Prairie Rose, North Dakota
Current Conditions -  °F | °C
As of 9:53 AM on Monday 26 Jan 2015 (Local Time) from KFAR Reporting Station
Clear Clear  
Wind Chill: 31°   Ceiling: Unl
Heat Index: 39°   Visibility: 10mi
Dew Point: 31°   Wind: 14mph
Humidity: 73%   Direction: 300°WNW
Pressure: 29.75"   Gusts: NA
Location:  46.8079°N, 96.8643°W
Report Text: KFAR 261553Z 30012KT 10SM CLR 04/M01 A2975 RMK AO2 SLP085 T00391006
Loading
Personal Weather Stations






























Interactive Weather Map New forecast layout! Learn more

10-Day Weather Forecast

Advertisements
Track Severe Weather on mobile